Terminal Aerodrome Forecast
Issued by NWS

Home | Current Version | Previous Version | Text Only | Print | Product List | Glossary On
Versions: 1 2 3 4 5 6 7 8 9 10 11 12 13 14 15 16 17 18
000
FTUS41 KGYX 061720
TAFAUG
TAF
KAUG 061720Z 0618/0718 VRB03KT P6SM BKN060
     FM070900 18003KT 1/2SM FG SCT250
     FM071200 17005KT P6SM OVC250=

USA.gov is the U.S. government's official web portal to all federal, state and local government web resources and services.